Time;durP1;ratioP1;P1;durP2;ratioP2;P2;SDS_P1;SDS_P2;PMS_P1;PMS_P2;Temp;Humidity;BMP_temperature;BMP_pressure;BME280_temperature;BME280_humidity;BME280_pressure;Samples;Min_cycle;Max_cycle;Signal;HPM_P1;HPM_P2
2022/08/10 00:00:36;;;;;;;3.00;2.60;;;17.80;74.00;;;;;;5100301;28;20526;-62
2022/08/10 00:03:06;;;;;;;3.70;2.20;;;17.80;75.00;;;;;;5105734;28;20450;-61
2022/08/10 00:05:34;;;;;;;4.30;2.30;;;17.90;76.00;;;;;;5101961;28;20534;-61
2022/08/10 00:08:03;;;;;;;4.57;2.33;;;17.80;76.70;;;;;;5101767;28;20482;-60
2022/08/10 00:10:30;;;;;;;4.53;2.53;;;17.80;77.50;;;;;;5101174;28;20468;-61
2022/08/10 00:12:58;;;;;;;5.90;2.50;;;17.70;78.40;;;;;;5105884;28;20479;-63
2022/08/10 00:15:25;;;;;;;2.30;2.10;;;17.70;79.30;;;;;;5108734;28;20470;-60
2022/08/10 00:17:53;;;;;;;3.00;2.20;;;17.70;80.50;;;;;;5109829;28;20489;-63
2022/08/10 00:20:20;;;;;;;5.87;2.77;;;17.60;81.10;;;;;;5112567;28;20453;-60
2022/08/10 00:22:47;;;;;;;2.37;2.17;;;17.60;82.00;;;;;;5112603;28;20442;-63
2022/08/10 00:25:16;;;;;;;2.43;2.23;;;17.60;82.80;;;;;;5112957;28;20484;-61
2022/08/10 00:27:43;;;;;;;4.70;2.60;;;17.50;83.40;;;;;;5115059;28;20481;-61
2022/08/10 00:30:12;;;;;;;6.43;2.80;;;17.50;84.40;;;;;;5110934;28;20458;-62
2022/08/10 00:32:39;;;;;;;5.50;2.47;;;17.40;85.20;;;;;;5114127;28;20453;-61
2022/08/10 00:35:07;;;;;;;3.20;2.73;;;17.30;86.10;;;;;;5107759;28;20989;-62
2022/08/10 00:37:34;;;;;;;5.63;3.00;;;17.40;87.00;;;;;;5108996;28;20510;-61
2022/08/10 00:40:01;;;;;;;6.93;2.63;;;17.30;87.70;;;;;;5108027;28;20512;-61
2022/08/10 00:42:30;;;;;;;4.20;2.20;;;17.30;88.50;;;;;;5107037;28;20466;-61
2022/08/10 00:44:57;;;;;;;2.40;2.17;;;17.30;89.00;;;;;;5107359;28;20504;-61
2022/08/10 00:47:25;;;;;;;6.00;2.70;;;17.20;89.70;;;;;;5105834;28;20495;-62
2022/08/10 00:49:52;;;;;;;7.10;2.67;;;17.20;90.00;;;;;;5105730;28;20475;-61
2022/08/10 00:52:20;;;;;;;3.43;2.80;;;17.20;90.20;;;;;;5106144;28;20466;-61
2022/08/10 00:54:48;;;;;;;4.77;2.90;;;17.20;90.40;;;;;;5105077;28;20502;-59
2022/08/10 00:57:16;;;;;;;3.20;2.40;;;17.20;90.60;;;;;;5090155;28;21058;-61
2022/08/10 00:59:45;;;;;;;3.77;2.30;;;17.10;90.70;;;;;;5106856;28;20484;-60
2022/08/10 01:02:12;;;;;;;4.90;2.53;;;17.00;90.90;;;;;;5107559;28;20462;-61
2022/08/10 01:04:39;;;;;;;5.27;2.77;;;17.00;91.20;;;;;;5107704;28;20454;-61
2022/08/10 01:07:22;;;;;;;2.50;2.30;;;17.00;91.40;;;;;;5108516;28;20482;-61
2022/08/10 01:09:59;;;;;;;3.67;2.60;;;17.00;91.50;;;;;;5108421;28;20486;-61
2022/08/10 01:12:32;;;;;;;3.23;2.63;;;17.00;91.80;;;;;;5105558;28;20468;-61
2022/08/10 01:15:08;;;;;;;4.53;2.40;;;17.00;91.90;;;;;;5103831;28;20474;-61
2022/08/10 01:17:46;;;;;;;4.63;2.37;;;16.90;91.90;;;;;;5103644;28;20473;-59
2022/08/10 01:20:21;;;;;;;5.27;2.97;;;16.90;92.20;;;;;;5104413;28;20460;-61
2022/08/10 01:23:13;;;;;;;4.13;2.63;;;16.80;92.40;;;;;;5103361;28;20465;-60
2022/08/10 01:25:56;;;;;;;2.90;2.30;;;16.80;92.60;;;;;;5071524;28;20550;-60
2022/08/10 01:28:34;;;;;;;3.07;2.50;;;16.70;92.70;;;;;;5123638;22;20484;-62
2022/08/10 01:31:04;;;;;;;3.80;2.53;;;16.70;92.90;;;;;;5091226;28;20488;-63
2022/08/10 01:33:36;;;;;;;6.97;2.50;;;16.60;93.10;;;;;;5120305;28;20446;-63
2022/08/10 01:36:09;;;;;;;4.00;2.80;;;16.60;93.30;;;;;;5129189;28;20514;-62
2022/08/10 01:38:40;;;;;;;3.47;2.80;;;16.60;93.60;;;;;;5123975;28;20477;-62
2022/08/10 01:41:11;;;;;;;3.03;2.53;;;16.60;93.70;;;;;;5101670;28;20486;-62
2022/08/10 01:43:43;;;;;;;6.43;2.93;;;16.60;93.80;;;;;;5113157;28;20450;-62
2022/08/10 01:46:15;;;;;;;4.33;3.17;;;16.60;93.90;;;;;;5097909;28;20486;-62
2022/08/10 01:48:46;;;;;;;2.70;2.50;;;16.50;94.00;;;;;;5095070;28;20486;-62
2022/08/10 01:51:19;;;;;;;2.63;2.30;;;16.50;94.20;;;;;;5114349;28;20449;-61
2022/08/10 01:53:52;;;;;;;4.50;2.47;;;16.50;94.30;;;;;;5100980;27;20577;-61
2022/08/10 01:56:22;;;;;;;3.10;2.70;;;16.50;94.40;;;;;;5115251;28;20473;-62
2022/08/10 01:58:55;;;;;;;3.00;2.40;;;16.50;94.60;;;;;;5102727;28;20989;-62
2022/08/10 02:01:28;;;;;;;3.30;2.10;;;16.40;94.60;;;;;;5097326;28;20830;-63
2022/08/10 02:04:02;;;;;;;4.00;2.80;;;16.40;94.80;;;;;;5115216;28;20557;-62
2022/08/10 02:06:32;;;;;;;3.20;2.60;;;16.30;95.00;;;;;;5116896;28;20837;-62
2022/08/10 02:09:02;;;;;;;3.30;3.00;;;16.30;95.20;;;;;;5115912;28;21022;-65
2022/08/10 02:11:29;;;;;;;3.00;2.70;;;16.20;95.40;;;;;;5118920;28;20458;-62
2022/08/10 02:13:58;;;;;;;2.70;2.50;;;16.20;95.60;;;;;;5114804;28;20841;-62
2022/08/10 02:16:27;;;;;;;3.20;2.90;;;16.20;95.80;;;;;;5115855;28;20911;-62
2022/08/10 02:18:56;;;;;;;5.50;2.90;;;16.20;95.90;;;;;;5099922;28;20540;-62
2022/08/10 02:21:25;;;;;;;5.17;2.80;;;16.10;96.30;;;;;;5115085;28;20536;-62
2022/08/10 02:23:55;;;;;;;4.27;3.27;;;16.10;96.20;;;;;;5114149;28;20960;-62
2022/08/10 02:26:22;;;;;;;5.30;3.20;;;16.10;96.70;;;;;;5116470;28;20562;-61
2022/08/10 02:28:51;;;;;;;6.70;2.97;;;16.10;96.50;;;;;;5100361;28;20562;-62
2022/08/10 02:31:22;;;;;;;4.80;4.30;;;16.10;96.70;;;;;;5107628;28;20535;-62
2022/08/10 02:33:54;;;;;;;5.90;3.60;;;16.10;96.80;;;;;;5113654;28;21118;-62
2022/08/10 02:36:24;;;;;;;6.27;3.47;;;16.10;96.90;;;;;;5114276;28;20475;-61
2022/08/10 02:38:55;;;;;;;3.37;2.67;;;16.10;97.00;;;;;;5105095;28;20481;-62
2022/08/10 02:41:29;;;;;;;3.60;3.03;;;16.10;97.00;;;;;;5115859;28;20450;-62
2022/08/10 02:44:03;;;;;;;6.50;3.97;;;16.00;97.10;;;;;;5096306;28;20454;-62
2022/08/10 02:46:36;;;;;;;5.23;2.80;;;16.00;97.30;;;;;;5108076;28;20458;-61
2022/08/10 02:49:05;;;;;;;3.40;3.13;;;15.90;97.50;;;;;;5097202;28;21078;-61
2022/08/10 02:51:41;;;;;;;3.40;2.97;;;15.90;97.70;;;;;;5109665;28;21030;-62
2022/08/10 02:54:11;;;;;;;2.70;2.50;;;15.90;97.80;;;;;;5082282;28;20496;-62
2022/08/10 02:56:46;;;;;;;3.50;3.20;;;15.90;97.90;;;;;;5111374;28;20501;-63
2022/08/10 02:59:16;;;;;;;4.77;3.03;;;15.90;98.20;;;;;;5101022;28;20477;-62
2022/08/10 03:01:46;;;;;;;5.73;3.10;;;15.90;98.10;;;;;;5113809;28;20553;-62
2022/08/10 03:04:20;;;;;;;5.00;3.33;;;15.90;98.20;;;;;;5104353;28;20453;-61
2022/08/10 03:06:54;;;;;;;3.53;3.00;;;15.80;98.30;;;;;;5114857;28;20467;-62
2022/08/10 03:09:24;;;;;;;4.13;3.20;;;15.80;98.40;;;;;;5107366;28;20495;-59
2022/08/10 03:11:53;;;;;;;5.27;3.63;;;15.80;98.50;;;;;;5114049;28;20469;-61
2022/08/10 03:14:21;;;;;;;3.30;3.00;;;15.80;98.70;;;;;;5114024;28;20489;-61
2022/08/10 03:16:51;;;;;;;3.90;3.07;;;15.80;98.90;;;;;;5116040;28;20473;-62
2022/08/10 03:19:21;;;;;;;3.20;2.93;;;15.70;99.00;;;;;;5104551;28;20513;-62
2022/08/10 03:21:49;;;;;;;3.57;2.90;;;15.70;99.10;;;;;;5100615;28;20462;-62
2022/08/10 03:24:21;;;;;;;3.83;2.90;;;15.70;99.20;;;;;;5107155;28;20492;-62
2022/08/10 03:26:49;;;;;;;3.60;3.30;;;15.70;99.20;;;;;;5122386;28;20446;-62
2022/08/10 03:29:18;;;;;;;7.33;3.73;;;15.70;99.40;;;;;;5106689;28;20493;-63
2022/08/10 03:31:46;;;;;;;3.60;3.30;;;15.60;99.40;;;;;;5108258;28;20458;-64
2022/08/10 03:34:15;;;;;;;6.47;3.53;;;15.60;99.60;;;;;;5116028;28;20456;-64
2022/08/10 03:36:44;;;;;;;4.23;3.83;;;15.60;99.80;;;;;;5109783;28;20534;-61
2022/08/10 03:39:12;;;;;;;4.10;3.70;;;15.60;99.90;;;;;;5106037;28;20516;-63
2022/08/10 03:41:46;;;;;;;10.50;4.63;;;15.50;99.90;;;;;;5118849;28;20495;-61
2022/08/10 03:44:19;;;;;;;4.40;3.97;;;15.50;99.90;;;;;;5113633;28;20456;-64
2022/08/10 03:46:48;;;;;;;3.90;3.17;;;15.40;99.90;;;;;;5078196;28;20422;-62
2022/08/10 03:49:19;;;;;;;4.20;3.53;;;15.40;99.90;;;;;;5096907;28;20480;-63
2022/08/10 03:51:50;;;;;;;3.97;3.57;;;15.40;99.90;;;;;;5117524;28;20455;-64
2022/08/10 03:54:18;;;;;;;6.20;3.70;;;15.30;99.90;;;;;;5114265;28;20477;-63
2022/08/10 03:56:46;;;;;;;5.07;3.20;;;15.30;99.90;;;;;;5123151;28;20501;-62
2022/08/10 03:59:15;;;;;;;7.47;3.30;;;15.30;99.90;;;;;;5109717;28;20482;-65
2022/08/10 04:01:43;;;;;;;4.33;3.63;;;15.30;99.90;;;;;;5105867;28;20824;-63
2022/08/10 04:04:10;;;;;;;6.13;3.40;;;15.30;99.90;;;;;;5124084;28;20429;-62
2022/08/10 04:10:08;;;;;;;6.53;4.50;;;15.30;99.90;;;;;;5105379;27;20592;-62
2022/08/10 04:12:35;;;;;;;6.77;4.00;;;15.30;99.90;;;;;;5103984;28;20438;-63
2022/08/10 04:15:03;;;;;;;5.73;3.53;;;15.40;99.90;;;;;;5102547;28;20491;-62
2022/08/10 04:17:30;;;;;;;4.73;4.33;;;15.40;99.90;;;;;;5108285;28;20467;-62
2022/08/10 04:19:59;;;;;;;7.00;3.93;;;15.40;99.90;;;;;;5099590;28;20462;-62
2022/08/10 04:22:28;;;;;;;5.43;3.90;;;15.40;99.90;;;;;;5100623;28;20535;-61
2022/08/10 04:25:01;;;;;;;6.40;3.50;;;15.50;99.90;;;;;;5103741;28;20466;-62
2022/08/10 04:27:31;;;;;;;6.50;3.83;;;15.50;99.90;;;;;;5109847;28;20470;-63
2022/08/10 04:29:58;;;;;;;4.27;3.70;;;15.60;99.90;;;;;;5097512;28;20547;-62
2022/08/10 04:32:30;;;;;;;4.40;3.83;;;15.90;99.90;;;;;;5101234;28;20472;-62
2022/08/10 04:34:58;;;;;;;5.57;4.70;;;16.10;99.90;;;;;;5103391;28;20463;-62
2022/08/10 04:37:27;;;;;;;4.97;3.93;;;16.30;99.90;;;;;;5100955;28;20645;-62
2022/08/10 04:39:54;;;;;;;5.13;2.93;;;16.50;99.90;;;;;;5094552;28;20454;-62
2022/08/10 04:42:22;;;;;;;3.50;3.20;;;16.80;99.80;;;;;;5102383;28;20478;-62
2022/08/10 04:44:51;;;;;;;5.50;3.70;;;17.10;99.10;;;;;;5106744;28;20462;-62
2022/08/10 04:47:19;;;;;;;6.57;3.40;;;17.50;98.30;;;;;;5108963;28;20458;-63
2022/08/10 04:49:46;;;;;;;6.43;3.47;;;17.80;97.50;;;;;;5088919;28;20477;-62
2022/08/10 04:52:13;;;;;;;10.23;4.27;;;18.10;96.60;;;;;;5088377;28;20459;-64
2022/08/10 04:54:40;;;;;;;3.50;3.20;;;18.30;95.80;;;;;;5071082;28;20534;-62
2022/08/10 04:57:08;;;;;;;4.63;3.67;;;18.40;95.30;;;;;;5074018;28;20971;-64
2022/08/10 04:59:35;;;;;;;4.27;3.77;;;18.50;94.60;;;;;;5075839;28;20652;-62
2022/08/10 05:02:04;;;;;;;7.47;3.60;;;18.60;94.00;;;;;;5088629;28;21033;-62
2022/08/10 05:04:31;;;;;;;6.40;3.80;;;18.60;93.50;;;;;;5087184;28;20536;-63
2022/08/10 05:06:58;;;;;;;2.97;2.70;;;18.50;93.30;;;;;;5087498;28;20988;-63
2022/08/10 05:09:25;;;;;;;6.17;3.33;;;18.50;93.10;;;;;;5067946;28;21063;-62
2022/08/10 05:11:52;;;;;;;6.70;3.33;;;18.60;92.80;;;;;;5084496;28;20494;-62
2022/08/10 05:14:20;;;;;;;8.63;3.20;;;18.60;92.40;;;;;;5088158;28;20538;-62
2022/08/10 05:16:47;;;;;;;5.90;3.60;;;18.60;92.30;;;;;;5068879;28;20464;-62
2022/08/10 05:19:15;;;;;;;4.50;3.77;;;18.70;92.10;;;;;;5065507;28;20677;-62
2022/08/10 05:21:43;;;;;;;6.77;3.90;;;18.70;91.60;;;;;;5053715;28;20496;-61
2022/08/10 05:24:11;;;;;;;6.10;3.70;;;18.80;91.30;;;;;;5056102;28;20505;-62
2022/08/10 05:26:38;;;;;;;4.93;3.40;;;18.90;91.10;;;;;;5050341;28;20477;-65
2022/08/10 05:29:05;;;;;;;6.60;3.40;;;19.10;90.80;;;;;;5048220;28;21039;-66
2022/08/10 05:31:33;;;;;;;9.00;3.37;;;19.20;90.10;;;;;;5051523;28;20492;-62
2022/08/10 05:34:00;;;;;;;5.70;4.07;;;19.30;89.50;;;;;;5054578;28;20580;-63
2022/08/10 05:36:29;;;;;;;8.20;4.13;;;19.30;88.70;;;;;;5052663;28;20561;-64
2022/08/10 05:38:57;;;;;;;9.97;3.33;;;19.30;87.90;;;;;;5054006;28;20488;-62
2022/08/10 05:41:25;;;;;;;7.30;4.43;;;19.20;87.50;;;;;;5049407;28;20541;-63
2022/08/10 05:43:52;;;;;;;4.73;3.00;;;19.30;87.20;;;;;;5065008;28;20540;-60
2022/08/10 05:46:19;;;;;;;7.50;4.33;;;19.30;86.70;;;;;;5075126;28;20545;-62
2022/08/10 05:48:48;;;;;;;8.27;4.00;;;19.30;86.50;;;;;;5074225;28;20490;-62
2022/08/10 05:51:16;;;;;;;5.40;3.37;;;19.30;86.50;;;;;;5073390;28;20493;-61
2022/08/10 05:53:45;;;;;;;6.77;3.60;;;19.30;86.10;;;;;;5068494;28;20554;-61
2022/08/10 05:56:13;;;;;;;6.10;3.67;;;19.40;86.00;;;;;;5052550;28;20469;-62
2022/08/10 05:58:40;;;;;;;4.30;3.63;;;19.40;85.70;;;;;;5054905;28;20494;-61
2022/08/10 06:01:12;;;;;;;6.87;3.97;;;19.40;85.20;;;;;;5055884;28;20496;-62
2022/08/10 06:03:46;;;;;;;6.30;3.37;;;19.40;84.60;;;;;;5055783;28;20465;-61
2022/08/10 06:06:18;;;;;;;6.27;3.47;;;19.40;84.30;;;;;;5055494;28;20498;-62
2022/08/10 06:08:49;;;;;;;6.20;3.47;;;19.40;83.60;;;;;;5055251;28;20486;-62
2022/08/10 06:11:18;;;;;;;6.83;4.10;;;19.30;83.00;;;;;;5055359;28;20913;-61
2022/08/10 06:16:34;;;;;;;5.33;3.40;;;19.20;82.10;;;;;;5054970;28;20405;-62
2022/08/10 06:19:02;;;;;;;6.83;3.90;;;19.10;81.70;;;;;;5079799;28;20896;-62
2022/08/10 06:21:30;;;;;;;8.60;3.40;;;19.10;81.40;;;;;;5078019;28;20471;-61
2022/08/10 06:24:01;;;;;;;11.40;3.67;;;19.00;81.20;;;;;;5070601;28;20480;-62
2022/08/10 06:26:28;;;;;;;8.37;3.53;;;19.00;80.90;;;;;;5070008;28;20465;-63
2022/08/10 06:28:59;;;;;;;8.30;3.67;;;19.00;80.60;;;;;;5073031;28;20488;-63
2022/08/10 06:31:27;;;;;;;6.67;3.27;;;19.00;80.40;;;;;;5073504;28;20515;-63
2022/08/10 06:33:57;;;;;;;4.20;3.73;;;19.10;80.40;;;;;;5071822;28;20479;-62
2022/08/10 06:36:26;;;;;;;5.63;3.77;;;19.20;80.00;;;;;;5071281;28;20447;-62
2022/08/10 06:38:56;;;;;;;5.47;3.20;;;19.20;79.40;;;;;;5068271;28;20480;-63
2022/08/10 06:41:28;;;;;;;5.67;3.93;;;19.30;79.10;;;;;;5066231;28;20464;-62
2022/08/10 06:44:00;;;;;;;7.43;4.13;;;19.30;78.80;;;;;;5068224;28;20436;-63
2022/08/10 06:46:28;;;;;;;7.87;3.60;;;19.40;78.50;;;;;;5056551;28;20468;-63
2022/08/10 06:49:00;;;;;;;5.67;3.53;;;19.50;78.10;;;;;;5054277;28;20489;-63
2022/08/10 06:51:33;;;;;;;5.53;3.33;;;19.50;77.50;;;;;;5053938;28;20420;-63
2022/08/10 06:54:03;;;;;;;5.13;4.30;;;19.60;77.30;;;;;;5054195;28;20436;-62
2022/08/10 06:56:35;;;;;;;5.90;3.63;;;19.70;76.70;;;;;;5055316;28;20473;-63
2022/08/10 06:59:08;;;;;;;13.17;3.90;;;19.80;76.10;;;;;;5053985;28;20456;-62
2022/08/10 07:01:39;;;;;;;7.30;3.40;;;19.80;75.40;;;;;;5054713;28;20456;-61
2022/08/10 07:04:10;;;;;;;9.00;4.30;;;20.00;75.10;;;;;;5054053;28;20446;-61
2022/08/10 07:06:41;;;;;;;8.73;3.63;;;20.00;74.30;;;;;;5054068;28;20429;-62
2022/08/10 07:09:11;;;;;;;8.37;3.60;;;20.20;73.80;;;;;;5053462;28;20646;-62
2022/08/10 07:11:41;;;;;;;9.37;3.07;;;20.30;73.00;;;;;;5054293;28;20483;-62
2022/08/10 07:14:11;;;;;;;5.37;3.63;;;20.40;72.30;;;;;;5054032;28;20457;-62
2022/08/10 07:16:41;;;;;;;11.63;3.47;;;20.50;71.70;;;;;;5053697;28;20490;-62
2022/08/10 07:19:09;;;;;;;7.03;3.77;;;20.50;71.40;;;;;;5053772;28;20515;-62
2022/08/10 07:21:39;;;;;;;11.87;4.47;;;20.50;71.30;;;;;;5053534;28;20475;-62
2022/08/10 07:24:09;;;;;;;6.57;3.20;;;20.60;70.80;;;;;;5053443;28;20448;-61
2022/08/10 07:26:43;;;;;;;6.43;3.93;;;20.70;70.60;;;;;;5047444;28;20480;-62
2022/08/10 07:29:11;;;;;;;4.40;3.30;;;20.70;70.40;;;;;;5035011;28;20480;-62
2022/08/10 07:31:38;;;;;;;5.27;4.40;;;20.80;70.20;;;;;;5033984;28;20657;-61
2022/08/10 07:34:07;;;;;;;8.47;4.27;;;20.90;69.70;;;;;;5034551;28;20461;-62
2022/08/10 07:36:36;;;;;;;7.60;3.57;;;21.10;69.30;;;;;;5048279;28;20567;-62
2022/08/10 07:39:05;;;;;;;7.73;3.30;;;21.30;68.50;;;;;;5053932;28;20551;-61
2022/08/10 07:41:34;;;;;;;11.20;3.77;;;21.40;67.50;;;;;;5059805;28;20513;-64
2022/08/10 07:44:05;;;;;;;6.40;3.60;;;21.50;66.80;;;;;;5057311;28;20525;-62
2022/08/10 07:46:35;;;;;;;5.20;3.10;;;21.70;66.50;;;;;;5065974;28;20492;-63
2022/08/10 07:49:06;;;;;;;5.43;3.20;;;21.80;66.00;;;;;;5073065;28;20552;-64
2022/08/10 07:51:33;;;;;;;3.10;2.80;;;22.00;65.20;;;;;;5070695;28;20526;-62
2022/08/10 07:54:04;;;;;;;8.37;3.00;;;22.00;64.50;;;;;;5072724;28;20453;-63
2022/08/10 07:56:33;;;;;;;5.27;2.80;;;22.10;64.10;;;;;;5073095;28;20457;-61
2022/08/10 07:59:07;;;;;;;4.80;3.27;;;22.20;63.70;;;;;;5073421;28;20460;-62
2022/08/10 08:01:40;;;;;;;4.87;3.33;;;22.30;63.10;;;;;;5072715;28;20520;-63
2022/08/10 08:04:12;;;;;;;5.60;3.30;;;22.50;62.20;;;;;;5072883;28;20431;-61
2022/08/10 08:06:41;;;;;;;5.33;2.90;;;22.60;61.60;;;;;;5053194;28;20495;-63
2022/08/10 08:09:09;;;;;;;7.10;3.30;;;22.80;61.00;;;;;;5052528;28;20598;-62
2022/08/10 08:11:37;;;;;;;4.23;3.83;;;23.00;60.10;;;;;;5055987;28;20459;-62
2022/08/10 08:14:07;;;;;;;3.30;2.90;;;23.20;59.50;;;;;;5062820;28;20894;-63
2022/08/10 08:16:37;;;;;;;5.13;3.27;;;23.30;58.80;;;;;;5052425;28;20527;-64
2022/08/10 08:19:05;;;;;;;3.13;2.53;;;23.50;58.10;;;;;;5052937;28;20571;-64
2022/08/10 08:21:34;;;;;;;6.20;3.00;;;23.60;57.60;;;;;;5060122;28;20508;-64
2022/08/10 08:24:03;;;;;;;3.20;2.90;;;23.70;57.10;;;;;;5072988;28;20489;-63
2022/08/10 08:26:31;;;;;;;5.63;2.80;;;23.80;56.60;;;;;;5066526;28;20487;-65
2022/08/10 08:28:59;;;;;;;8.63;2.77;;;23.90;56.00;;;;;;5051294;28;20474;-62
2022/08/10 08:31:29;;;;;;;4.70;2.80;;;24.00;55.50;;;;;;5052472;28;20448;-62
2022/08/10 08:33:58;;;;;;;3.80;2.80;;;24.10;55.10;;;;;;5052929;28;20535;-63
2022/08/10 08:36:26;;;;;;;4.00;3.13;;;24.20;54.80;;;;;;5052589;28;20483;-63
2022/08/10 08:38:54;;;;;;;3.70;2.90;;;24.30;54.30;;;;;;5052877;28;20514;-62
2022/08/10 08:41:42;;;;;;;5.80;2.87;;;24.40;53.90;;;;;;5052738;28;20447;-62
2022/08/10 08:44:17;;;;;;;10.53;3.10;;;24.50;53.50;;;;;;5052864;28;20441;-62
2022/08/10 08:47:21;;;;;;;4.10;2.93;;;24.60;53.20;;;;;;5052679;28;20474;-63
2022/08/10 08:50:16;;;;;;;4.10;2.70;;;24.70;53.50;;;;;;5052410;28;20583;-62
2022/08/10 08:52:53;;;;;;;4.73;2.90;;;24.80;53.00;;;;;;5052965;28;20454;-63
2022/08/10 08:55:31;;;;;;;4.93;3.43;;;24.80;52.20;;;;;;5053822;28;20429;-63
2022/08/10 08:58:27;;;;;;;4.10;2.90;;;24.80;51.90;;;;;;5055857;28;20954;-61
2022/08/10 09:01:05;;;;;;;5.97;3.40;;;24.90;51.70;;;;;;5056640;28;20779;-63
2022/08/10 09:04:10;;;;;;;5.13;3.10;;;24.90;51.40;;;;;;5055992;28;20537;-62
2022/08/10 09:06:59;;;;;;;8.57;3.50;;;25.10;51.00;;;;;;5056071;28;20420;-64
2022/08/10 09:10:03;;;;;;;3.80;3.17;;;25.20;50.50;;;;;;5044312;28;20484;-63
2022/08/10 09:12:49;;;;;;;6.77;3.13;;;25.30;49.90;;;;;;5051845;28;20525;-63
2022/08/10 09:15:26;;;;;;;6.90;3.27;;;25.50;49.80;;;;;;5055297;28;20426;-62
2022/08/10 09:18:03;;;;;;;2.47;2.20;;;25.50;49.50;;;;;;5049377;28;20488;-62
2022/08/10 09:20:37;;;;;;;4.70;2.60;;;25.60;49.20;;;;;;5049268;28;20441;-63
2022/08/10 09:23:12;;;;;;;4.50;2.80;;;25.70;48.80;;;;;;5055522;28;20442;-62
2022/08/10 09:25:45;;;;;;;4.30;3.00;;;25.90;48.40;;;;;;5059946;28;20484;-62
2022/08/10 09:28:23;;;;;;;3.00;2.70;;;26.10;48.00;;;;;;5045743;28;20833;-62
2022/08/10 09:30:58;;;;;;;4.43;2.90;;;26.20;47.60;;;;;;5039907;28;20477;-62
2022/08/10 09:33:35;;;;;;;3.67;2.83;;;26.40;47.20;;;;;;5039997;28;20425;-64
2022/08/10 09:36:15;;;;;;;4.17;2.47;;;26.50;46.90;;;;;;5041693;28;20473;-63
2022/08/10 09:38:51;;;;;;;6.17;3.10;;;26.70;46.40;;;;;;5044239;28;20474;-62
2022/08/10 09:41:29;;;;;;;3.60;3.00;;;26.90;46.00;;;;;;5042145;28;20452;-62
2022/08/10 09:44:06;;;;;;;4.50;2.90;;;27.00;45.70;;;;;;5041940;28;20482;-63
2022/08/10 09:46:47;;;;;;;9.20;3.90;;;27.10;45.10;;;;;;5036588;28;20453;-61
2022/08/10 09:49:21;;;;;;;3.93;3.20;;;27.10;44.60;;;;;;5035351;28;21045;-62
2022/08/10 09:51:59;;;;;;;3.00;2.70;;;27.00;44.30;;;;;;5035644;28;20894;-61
2022/08/10 09:54:42;;;;;;;4.50;2.93;;;26.90;43.90;;;;;;5035252;28;20433;-62
2022/08/10 09:57:23;;;;;;;4.13;3.27;;;26.80;44.00;;;;;;5034988;28;20438;-62
2022/08/10 09:59:57;;;;;;;3.70;2.53;;;26.80;44.00;;;;;;5035423;28;20438;-62
2022/08/10 10:02:37;;;;;;;4.20;2.40;;;26.80;43.50;;;;;;5034979;28;20492;-63
2022/08/10 10:05:19;;;;;;;4.77;2.47;;;26.90;43.30;;;;;;5035032;28;20431;-63
2022/08/10 10:07:57;;;;;;;3.50;2.67;;;27.00;43.00;;;;;;5034632;28;20543;-62
2022/08/10 10:10:32;;;;;;;5.17;2.53;;;26.90;42.70;;;;;;5035759;28;20497;-63
2022/08/10 10:13:06;;;;;;;2.63;2.20;;;26.80;43.20;;;;;;5035222;28;20472;-63
2022/08/10 10:15:48;;;;;;;2.43;2.10;;;26.60;42.60;;;;;;5035280;28;20433;-63
2022/08/10 10:18:24;;;;;;;2.10;1.83;;;26.70;42.50;;;;;;5035583;28;20474;-62
2022/08/10 10:21:04;;;;;;;2.30;2.10;;;26.90;42.00;;;;;;5034695;28;20589;-61
2022/08/10 10:23:51;;;;;;;2.57;2.23;;;27.00;41.60;;;;;;5035088;28;20444;-62
2022/08/10 10:26:36;;;;;;;2.70;2.50;;;27.10;41.60;;;;;;5035464;28;20507;-62
2022/08/10 10:29:14;;;;;;;4.03;2.33;;;27.40;41.60;;;;;;5034897;28;21147;-61
2022/08/10 10:31:52;;;;;;;2.80;2.33;;;27.70;41.20;;;;;;5035288;28;20507;-63
2022/08/10 10:34:37;;;;;;;3.40;2.23;;;27.90;40.80;;;;;;5035919;28;20476;-62
2022/08/10 10:37:07;;;;;;;5.10;2.20;;;27.90;40.40;;;;;;5035525;28;20436;-63
2022/08/10 10:39:39;;;;;;;5.43;3.10;;;28.00;40.20;;;;;;5035560;28;20498;-65
2022/08/10 10:42:15;;;;;;;2.63;2.40;;;28.10;40.10;;;;;;5034830;28;20439;-65
2022/08/10 10:44:50;;;;;;;5.13;2.20;;;28.10;39.90;;;;;;5034867;28;20463;-64
2022/08/10 10:47:36;;;;;;;2.80;2.30;;;28.00;39.60;;;;;;5034462;28;20426;-63
2022/08/10 10:50:11;;;;;;;5.77;2.40;;;27.90;39.80;;;;;;5035472;28;20472;-63
2022/08/10 10:52:49;;;;;;;2.73;2.20;;;27.60;39.60;;;;;;5034291;28;20424;-64
2022/08/10 10:55:23;;;;;;;2.00;1.70;;;27.50;39.60;;;;;;5034037;28;20434;-65
2022/08/10 10:57:59;;;;;;;2.40;2.20;;;27.50;39.50;;;;;;5034320;28;20470;-64
2022/08/10 11:00:34;;;;;;;7.80;2.10;;;27.60;39.30;;;;;;5034676;28;20843;-65
2022/08/10 11:03:19;;;;;;;3.30;1.87;;;27.70;39.00;;;;;;5034177;28;20832;-65
2022/08/10 11:06:09;;;;;;;3.13;2.63;;;27.80;38.50;;;;;;5033825;28;20504;-64
2022/08/10 11:08:40;;;;;;;2.33;2.13;;;27.90;38.30;;;;;;5034600;28;20568;-64
2022/08/10 11:11:13;;;;;;;2.53;1.87;;;27.90;38.20;;;;;;5034058;28;20477;-66
2022/08/10 11:13:46;;;;;;;4.47;2.17;;;28.00;38.20;;;;;;5033375;28;20467;-66
2022/08/10 11:16:20;;;;;;;2.47;1.90;;;28.00;38.00;;;;;;5033554;28;20608;-65
2022/08/10 11:18:59;;;;;;;4.57;1.77;;;28.00;38.00;;;;;;5033203;28;20959;-64
2022/08/10 11:21:43;;;;;;;3.00;2.23;;;27.90;37.70;;;;;;5033267;28;20433;-64
2022/08/10 11:24:20;;;;;;;5.80;1.83;;;28.10;37.50;;;;;;5033804;28;20429;-65
2022/08/10 11:26:54;;;;;;;2.00;1.80;;;28.10;37.30;;;;;;5033300;28;20523;-64
2022/08/10 11:29:29;;;;;;;2.30;1.93;;;28.10;37.10;;;;;;5033021;28;20621;-66
2022/08/10 11:32:02;;;;;;;3.90;2.30;;;28.10;36.50;;;;;;5033413;28;20501;-67
2022/08/10 11:34:35;;;;;;;2.63;2.33;;;28.10;36.50;;;;;;5034018;28;20881;-64
2022/08/10 11:37:14;;;;;;;2.27;1.80;;;28.20;36.70;;;;;;5033969;28;20467;-65
2022/08/10 11:39:48;;;;;;;2.87;2.00;;;28.40;36.40;;;;;;5064539;28;20455;-63
2022/08/10 11:42:30;;;;;;;4.63;1.73;;;28.50;35.90;;;;;;5069238;28;20545;-64
2022/08/10 11:45:02;;;;;;;2.47;1.70;;;28.50;35.50;;;;;;5072162;28;20867;-63
2022/08/10 11:47:37;;;;;;;4.87;1.50;;;28.50;34.60;;;;;;5068563;28;20487;-65
2022/08/10 11:50:13;;;;;;;2.10;1.90;;;28.40;34.20;;;;;;5050205;28;20540;-63
2022/08/10 11:52:49;;;;;;;1.80;1.53;;;28.40;34.40;;;;;;5053828;28;20444;-66
2022/08/10 11:55:20;;;;;;;4.20;2.10;;;28.50;34.30;;;;;;5053644;28;20473;-64
2022/08/10 11:57:52;;;;;;;1.93;1.80;;;28.70;33.90;;;;;;5053554;28;20507;-65
2022/08/10 12:00:19;;;;;;;3.40;1.80;;;29.30;33.40;;;;;;5055019;28;20491;-64
2022/08/10 12:02:50;;;;;;;3.90;1.90;;;29.90;32.80;;;;;;5054135;28;20476;-66
2022/08/10 12:05:21;;;;;;;4.53;1.90;;;30.40;32.10;;;;;;5053772;28;20466;-65
2022/08/10 12:07:51;;;;;;;2.77;1.83;;;30.80;31.60;;;;;;5053662;28;20457;-68
2022/08/10 12:10:21;;;;;;;2.50;1.50;;;31.20;31.10;;;;;;5054343;28;20945;-68
2022/08/10 12:13:02;;;;;;;2.43;1.70;;;31.80;30.50;;;;;;5054211;28;20465;-64
2022/08/10 12:15:35;;;;;;;5.20;1.80;;;32.30;30.00;;;;;;5054208;28;20433;-64
2022/08/10 12:18:07;;;;;;;2.67;1.77;;;32.60;29.40;;;;;;5053687;28;20564;-65
2022/08/10 12:20:37;;;;;;;1.93;1.60;;;32.80;29.20;;;;;;5074605;28;20542;-65
2022/08/10 12:23:12;;;;;;;3.57;1.93;;;32.80;29.00;;;;;;5081680;28;20442;-64
2022/08/10 12:25:48;;;;;;;7.40;1.90;;;32.80;28.90;;;;;;5065204;28;20465;-60
2022/08/10 12:28:23;;;;;;;3.10;1.93;;;32.80;28.90;;;;;;5061579;28;20459;-66
2022/08/10 12:30:55;;;;;;;2.03;1.60;;;32.70;28.90;;;;;;5077514;28;20507;-67
2022/08/10 12:33:26;;;;;;;1.60;1.43;;;32.40;29.00;;;;;;5063580;28;20480;-64
2022/08/10 12:36:02;;;;;;;3.67;1.40;;;32.00;29.30;;;;;;5062760;28;20489;-65
2022/08/10 12:38:39;;;;;;;4.23;1.90;;;31.40;29.70;;;;;;5079142;28;20556;-67
2022/08/10 12:41:16;;;;;;;3.87;2.20;;;30.90;30.20;;;;;;5078694;28;20831;-63
2022/08/10 12:43:51;;;;;;;2.97;1.70;;;30.40;30.70;;;;;;5077464;28;20440;-67
2022/08/10 12:46:28;;;;;;;2.40;2.20;;;30.00;31.20;;;;;;5075013;28;20439;-63
2022/08/10 12:49:07;;;;;;;2.27;1.70;;;29.70;31.50;;;;;;5058424;28;20839;-64
2022/08/10 12:51:37;;;;;;;1.90;1.70;;;29.40;31.90;;;;;;5072751;28;20913;-65
2022/08/10 12:54:10;;;;;;;6.03;2.23;;;29.30;32.50;;;;;;5077270;28;20550;-63
2022/08/10 12:56:44;;;;;;;2.10;1.90;;;29.20;32.70;;;;;;5078353;28;20436;-63
2022/08/10 12:59:13;;;;;;;7.20;5.13;;;29.10;33.10;;;;;;5056392;28;20480;-64
2022/08/10 13:01:43;;;;;;;3.43;2.70;;;29.10;33.20;;;;;;5055362;28;20436;-66
2022/08/10 13:04:13;;;;;;;2.80;2.50;;;29.20;33.40;;;;;;5056037;28;20562;-65
2022/08/10 13:06:46;;;;;;;3.70;1.70;;;29.20;33.20;;;;;;5055657;28;20446;-65
2022/08/10 13:09:14;;;;;;;1.73;1.60;;;29.10;33.20;;;;;;5062718;28;20519;-62
2022/08/10 13:11:47;;;;;;;2.60;2.03;;;29.10;33.50;;;;;;5077741;28;20480;-62
2022/08/10 13:14:22;;;;;;;3.70;2.00;;;29.00;33.70;;;;;;5068032;28;20495;-63
2022/08/10 13:16:51;;;;;;;3.00;2.70;;;29.10;33.80;;;;;;5053404;28;20532;-62